Time;durP1;ratioP1;P1;durP2;ratioP2;P2;SDS_P1;SDS_P2;PMS_P1;PMS_P2;Temp;Humidity;BMP_temperature;BMP_pressure;BME280_temperature;BME280_humidity;BME280_pressure;Samples;Min_cycle;Max_cycle;Signal;HPM_P1;HPM_P2
2022/03/01 00:00:24;;;;;;;;;;;;;;;4.79;47.28;101788.47;4982824;28;6780;-71
2022/03/01 00:02:50;;;;;;;;;;;;;;;4.79;47.45;101772.38;4959704;28;7191;-71
2022/03/01 00:05:15;;;;;;;;;;;;;;;4.77;48.24;101782.38;4959095;28;6780;-71
2022/03/01 00:07:41;;;;;;;;;;;;;;;4.75;47.51;101783.88;4973807;28;7872;-71
2022/03/01 00:10:08;;;;;;;;;;;;;;;4.71;47.75;101770.00;4969530;28;7143;-71
2022/03/01 00:12:34;;;;;;;;;;;;;;;4.68;47.72;101764.63;4976003;28;6780;-71
2022/03/01 00:14:59;;;;;;;;;;;;;;;4.65;48.56;101771.94;4960021;28;6788;-71
2022/03/01 00:17:25;;;;;;;;;;;;;;;4.63;47.83;101775.09;4970546;28;6926;-71
2022/03/01 00:19:51;;;;;;;;;;;;;;;4.60;48.63;101778.25;4968932;28;6827;-71
2022/03/01 00:22:16;;;;;;;;;;;;;;;4.59;48.37;101779.00;4972108;28;6812;-71
2022/03/01 00:24:42;;;;;;;;;;;;;;;4.59;48.01;101777.34;4982579;28;7345;-71
2022/03/01 00:27:08;;;;;;;;;;;;;;;4.59;48.66;101782.44;4971549;28;6890;-71
2022/03/01 00:29:34;;;;;;;;;;;;;;;4.59;47.70;101784.97;4976161;28;6883;-71
2022/03/01 00:32:00;;;;;;;;;;;;;;;4.61;48.74;101785.13;4976648;28;7495;-71
2022/03/01 00:34:25;;;;;;;;;;;;;;;4.62;48.76;101786.00;4972935;28;7163;-71
2022/03/01 00:36:51;;;;;;;;;;;;;;;4.62;48.39;101791.09;4975854;28;6780;-71
2022/03/01 00:39:16;;;;;;;;;;;;;;;4.63;48.23;101787.78;4940640;28;7363;-72
2022/03/01 00:41:42;;;;;;;;;;;;;;;4.62;48.32;101784.38;4968128;28;6796;-71
2022/03/01 00:44:08;;;;;;;;;;;;;;;4.62;48.48;101778.38;4958483;28;7386;-71
2022/03/01 00:46:34;;;;;;;;;;;;;;;4.59;48.38;101779.88;4959363;28;8494;-71
2022/03/01 00:49:00;;;;;;;;;;;;;;;4.58;47.55;101780.66;4954508;28;7082;-71
2022/03/01 00:51:27;;;;;;;;;;;;;;;4.55;47.88;101780.38;4976114;28;6795;-71
2022/03/01 00:53:53;;;;;;;;;;;;;;;4.56;47.45;101787.22;4969588;28;7505;-71
2022/03/01 00:56:19;;;;;;;;;;;;;;;4.51;47.61;101782.47;4960049;28;8696;-71
2022/03/01 00:58:45;;;;;;;;;;;;;;;4.44;48.57;101786.94;4960342;28;6792;-71
2022/03/01 01:01:11;;;;;;;;;;;;;;;4.42;48.17;101783.38;4978679;28;7014;-71
2022/03/01 01:03:36;;;;;;;;;;;;;;;4.36;48.14;101787.88;4957601;28;6786;-71
2022/03/01 01:06:02;;;;;;;;;;;;;;;4.31;47.77;101786.56;4976365;28;6788;-71
2022/03/01 01:08:28;;;;;;;;;;;;;;;4.26;47.72;101791.19;4955081;28;6784;-71
2022/03/01 01:10:54;;;;;;;;;;;;;;;4.21;47.86;101796.56;4979604;28;6772;-71
2022/03/01 01:13:20;;;;;;;;;;;;;;;4.17;48.59;101787.75;4952052;28;7392;-71
2022/03/01 01:15:46;;;;;;;;;;;;;;;4.13;49.22;101785.66;4957947;28;7204;-71
2022/03/01 01:18:12;;;;;;;;;;;;;;;4.11;49.09;101777.00;4978112;28;7237;-71
2022/03/01 01:20:39;;;;;;;;;;;;;;;4.08;48.92;101780.13;4959679;28;6811;-71
2022/03/01 01:23:05;;;;;;;;;;;;;;;4.06;48.79;101776.56;4965566;28;6963;-71
2022/03/01 01:25:32;;;;;;;;;;;;;;;4.05;48.42;101779.84;4980948;28;8253;-71
2022/03/01 01:28:00;;;;;;;;;;;;;;;4.06;48.14;101765.53;4983272;28;6919;-71
2022/03/01 01:30:31;;;;;;;;;;;;;;;4.04;48.71;101767.91;4961729;28;7003;-71
2022/03/01 01:32:57;;;;;;;;;;;;;;;4.03;48.47;101755.97;4975197;28;6824;-71
2022/03/01 01:35:26;;;;;;;;;;;;;;;4.05;48.95;101761.19;4979121;28;7230;-71
2022/03/01 01:37:54;;;;;;;;;;;;;;;4.06;49.51;101753.72;4975286;28;7225;-71
2022/03/01 01:40:27;;;;;;;;;;;;;;;4.09;49.32;101743.88;4960643;28;7042;-71
2022/03/01 01:42:54;;;;;;;;;;;;;;;4.13;48.62;101747.59;4970195;28;7039;-71
2022/03/01 01:45:22;;;;;;;;;;;;;;;4.18;49.39;101751.47;4961822;28;6976;-71
2022/03/01 01:47:50;;;;;;;;;;;;;;;4.21;49.14;101744.16;4977819;28;8009;-71
2022/03/01 01:50:18;;;;;;;;;;;;;;;4.25;47.95;101746.25;4959572;28;7865;-71
2022/03/01 01:52:50;;;;;;;;;;;;;;;4.29;48.06;101753.38;4977397;28;7455;-71
2022/03/01 01:55:18;;;;;;;;;;;;;;;4.34;47.96;101750.38;4962142;28;6820;-71
2022/03/01 01:57:44;;;;;;;;;;;;;;;4.36;48.34;101754.00;4976832;28;7221;-71
2022/03/01 02:00:11;;;;;;;;;;;;;;;4.38;48.04;101750.81;4974507;28;6796;-71
2022/03/01 02:02:38;;;;;;;;;;;;;;;4.40;48.30;101748.44;4950153;28;7389;-71
2022/03/01 02:05:05;;;;;;;;;;;;;;;4.40;47.80;101745.91;4971678;28;6801;-71
2022/03/01 02:07:30;;;;;;;;;;;;;;;4.39;48.90;101742.44;4978066;28;7078;-71
2022/03/01 02:09:56;;;;;;;;;;;;;;;4.39;47.73;101744.09;4957137;28;6881;-71
2022/03/01 02:12:22;;;;;;;;;;;;;;;4.36;48.72;101732.00;4972417;28;6883;-71
2022/03/01 02:14:48;;;;;;;;;;;;;;;4.35;48.35;101734.44;4952681;28;7528;-71
2022/03/01 02:17:15;;;;;;;;;;;;;;;4.29;48.26;101745.78;4975408;28;7084;-71
2022/03/01 02:19:51;;;;;;;;;;;;;;;4.27;48.15;101747.28;4958294;28;6895;-71
2022/03/01 02:22:18;;;;;;;;;;;;;;;4.24;49.01;101739.34;4979521;28;7011;-71
2022/03/01 02:24:44;;;;;;;;;;;;;;;4.23;48.56;101737.56;4974826;28;6820;-71
2022/03/01 02:27:10;;;;;;;;;;;;;;;4.21;48.25;101734.00;4962208;28;7040;-71
2022/03/01 02:29:36;;;;;;;;;;;;;;;4.19;48.56;101732.97;4975841;28;6772;-71
2022/03/01 02:32:07;;;;;;;;;;;;;;;4.16;48.14;101741.16;4956473;28;6968;-71
2022/03/01 02:34:33;;;;;;;;;;;;;;;4.14;48.83;101731.63;4976907;28;7291;-71
2022/03/01 02:37:00;;;;;;;;;;;;;;;4.11;48.21;101726.25;4954852;28;7312;-71
2022/03/01 02:39:26;;;;;;;;;;;;;;;4.07;49.05;101726.72;4981306;28;6803;-71
2022/03/01 02:41:52;;;;;;;;;;;;;;;4.05;47.91;101729.09;4961578;28;6817;-71
2022/03/01 02:44:18;;;;;;;;;;;;;;;4.02;48.86;101729.69;4976718;28;6823;-71
2022/03/01 02:46:45;;;;;;;;;;;;;;;3.99;49.19;101719.28;4962162;28;6957;-71
2022/03/01 02:49:10;;;;;;;;;;;;;;;3.99;48.99;101723.44;4940778;28;6997;-71
2022/03/01 02:51:37;;;;;;;;;;;;;;;3.97;49.39;101715.69;4966793;28;6938;-71
2022/03/01 02:54:05;;;;;;;;;;;;;;;3.97;49.08;101710.63;4965279;28;6808;-71
2022/03/01 02:56:31;;;;;;;;;;;;;;;3.97;48.29;101705.56;4961129;28;7216;-71
2022/03/01 02:58:58;;;;;;;;;;;;;;;3.97;49.10;101705.56;4957591;28;7209;-71
2022/03/01 03:01:26;;;;;;;;;;;;;;;3.99;48.61;101708.22;4976865;28;8415;-71
2022/03/01 03:03:52;;;;;;;;;;;;;;;3.99;48.93;101711.66;4978987;28;6812;-71
2022/03/01 03:06:18;;;;;;;;;;;;;;;4.00;49.35;101708.38;4984134;28;6783;-71
2022/03/01 03:08:45;;;;;;;;;;;;;;;4.01;48.95;101701.66;4963949;28;7174;-71
2022/03/01 03:11:10;;;;;;;;;;;;;;;4.02;49.05;101706.88;4978473;28;7370;-71
2022/03/01 03:13:36;;;;;;;;;;;;;;;4.03;49.43;101701.03;4958417;28;7247;-71
2022/03/01 03:16:04;;;;;;;;;;;;;;;4.03;49.39;101702.69;4978834;28;6792;-71
2022/03/01 03:18:31;;;;;;;;;;;;;;;4.03;49.34;101702.69;4978583;28;7333;-71
2022/03/01 03:20:57;;;;;;;;;;;;;;;4.03;49.14;101695.09;4977456;28;6812;-71
2022/03/01 03:23:23;;;;;;;;;;;;;;;4.02;47.86;101689.09;4980033;28;6855;-71
2022/03/01 03:25:49;;;;;;;;;;;;;;;4.02;48.65;101688.22;4980193;28;6804;-71
2022/03/01 03:28:15;;;;;;;;;;;;;;;4.03;47.92;101697.63;4981864;28;6779;-71
2022/03/01 03:30:40;;;;;;;;;;;;;;;4.03;48.71;101695.09;4978887;28;6784;-71
2022/03/01 03:33:06;;;;;;;;;;;;;;;4.03;48.69;101701.03;4957262;28;7824;-71
2022/03/01 03:35:35;;;;;;;;;;;;;;;4.05;47.86;101706.28;4974653;28;6851;-71
2022/03/01 03:38:00;;;;;;;;;;;;;;;4.05;48.22;101703.72;4982254;28;7725;-71
2022/03/01 03:40:26;;;;;;;;;;;;;;;4.06;47.87;101699.56;4972414;28;7212;-71
2022/03/01 03:42:52;;;;;;;;;;;;;;;4.03;48.37;101706.13;4966850;28;7280;-71
2022/03/01 03:45:18;;;;;;;;;;;;;;;4.02;48.00;101709.41;4974968;28;7209;-71
2022/03/01 03:47:43;;;;;;;;;;;;;;;3.99;48.23;101706.59;4946641;28;6934;-71
2022/03/01 03:50:11;;;;;;;;;;;;;;;3.96;47.54;101711.38;4978630;28;6792;-71
2022/03/01 03:52:41;;;;;;;;;;;;;;;3.92;48.45;101721.97;4955552;28;7826;-71
2022/03/01 03:55:09;;;;;;;;;;;;;;;3.88;48.67;101708.09;4969697;28;7039;-71
2022/03/01 03:57:36;;;;;;;;;;;;;;;3.86;47.89;101707.03;4975683;28;7004;-71
2022/03/01 04:00:15;;;;;;;;;;;;;;;3.87;48.12;101716.44;4975891;28;7090;-71
2022/03/01 04:02:42;;;;;;;;;;;;;;;3.85;48.78;101714.50;4938433;28;7258;-71
2022/03/01 04:05:09;;;;;;;;;;;;;;;3.88;48.02;101717.34;4970932;28;6788;-71
2022/03/01 04:07:35;;;;;;;;;;;;;;;3.90;48.38;101703.16;4949475;28;6788;-71
2022/03/01 04:10:00;;;;;;;;;;;;;;;3.92;47.89;101703.31;4957597;28;7146;-71
2022/03/01 04:12:26;;;;;;;;;;;;;;;3.93;47.56;101706.00;4953214;28;6962;-71
2022/03/01 04:14:52;;;;;;;;;;;;;;;3.97;48.84;101708.09;4954469;28;6776;-70
2022/03/01 04:17:17;;;;;;;;;;;;;;;4.01;48.50;101701.66;4976941;28;7601;-71
2022/03/01 04:19:43;;;;;;;;;;;;;;;4.05;48.28;101703.72;4973449;28;6868;-71
2022/03/01 04:22:09;;;;;;;;;;;;;;;4.10;48.35;101694.03;4976645;28;7124;-71
2022/03/01 04:24:34;;;;;;;;;;;;;;;4.16;47.81;101692.06;4941562;28;6896;-71
2022/03/01 04:27:00;;;;;;;;;;;;;;;4.19;47.70;101689.81;4979930;28;6799;-71
2022/03/01 04:29:26;;;;;;;;;;;;;;;4.25;47.53;101692.03;4952479;28;7334;-71
2022/03/01 04:31:52;;;;;;;;;;;;;;;4.29;47.76;101679.78;4965540;28;8265;-71
2022/03/01 04:34:17;;;;;;;;;;;;;;;4.36;47.89;101696.47;4978291;28;6804;-71
2022/03/01 04:36:43;;;;;;;;;;;;;;;4.41;48.15;101691.81;4978497;28;7880;-71
2022/03/01 04:39:09;;;;;;;;;;;;;;;4.45;47.44;101696.47;4972702;28;6886;-71
2022/03/01 04:41:34;;;;;;;;;;;;;;;4.50;47.24;101690.16;4973348;28;6788;-71
2022/03/01 04:44:00;;;;;;;;;;;;;;;4.54;47.96;101692.25;4977387;28;6788;-71
2022/03/01 04:46:26;;;;;;;;;;;;;;;4.57;47.78;101687.44;4983018;28;6796;-71
2022/03/01 04:48:51;;;;;;;;;;;;;;;4.61;47.55;101686.09;4957831;28;6790;-71
2022/03/01 04:51:21;;;;;;;;;;;;;;;4.63;47.55;101697.28;4978629;28;7285;-71
2022/03/01 04:53:51;;;;;;;;;;;;;;;4.65;47.82;101698.28;4973040;28;6985;-71
2022/03/01 04:56:18;;;;;;;;;;;;;;;4.68;47.52;101697.69;4980290;28;6835;-71
2022/03/01 04:58:44;;;;;;;;;;;;;;;4.69;47.88;101695.31;4957787;28;7865;-71
2022/03/01 05:01:10;;;;;;;;;;;;;;;4.70;47.78;101699.63;4975629;28;6800;-71
2022/03/01 05:03:36;;;;;;;;;;;;;;;4.72;47.36;101699.75;4978034;28;6943;-70
2022/03/01 05:06:01;;;;;;;;;;;;;;;4.75;47.14;101697.53;4977290;28;6923;-71
2022/03/01 05:08:30;;;;;;;;;;;;;;;4.77;47.32;101696.00;4977186;28;6780;-70
2022/03/01 05:11:01;;;;;;;;;;;;;;;4.80;47.44;101695.41;4973735;28;7297;-70
2022/03/01 05:13:27;;;;;;;;;;;;;;;4.83;47.60;101694.03;4980749;28;7166;-71
2022/03/01 05:15:53;;;;;;;;;;;;;;;4.89;48.19;101700.41;4976336;28;6802;-71
2022/03/01 05:18:19;;;;;;;;;;;;;;;4.93;47.76;101698.31;4973539;28;6798;-71
2022/03/01 05:20:45;;;;;;;;;;;;;;;4.97;48.27;101696.94;4981457;28;6792;-71
2022/03/01 05:23:10;;;;;;;;;;;;;;;5.00;47.68;101698.13;4977632;28;6939;-71
2022/03/01 05:25:36;;;;;;;;;;;;;;;5.04;47.62;101700.94;4960730;28;6947;-71
2022/03/01 05:28:02;;;;;;;;;;;;;;;5.08;48.13;101698.81;4976727;28;7074;-71
2022/03/01 05:30:28;;;;;;;;;;;;;;;5.11;48.16;101696.53;4978327;28;6792;-71
2022/03/01 05:32:57;;;;;;;;;;;;;;;5.14;48.12;101694.28;4959658;28;7844;-71
2022/03/01 05:35:27;;;;;;;;;;;;;;;5.18;48.29;101692.94;4976762;28;7334;-71
2022/03/01 05:37:54;;;;;;;;;;;;;;;5.20;47.60;101701.56;4976507;28;7295;-71
2022/03/01 05:40:25;;;;;;;;;;;;;;;5.23;47.53;101698.44;4977501;28;6861;-71
2022/03/01 05:42:51;;;;;;;;;;;;;;;5.24;47.88;101695.13;4976324;28;8054;-71
2022/03/01 05:45:17;;;;;;;;;;;;;;;5.26;48.05;101699.59;4962955;28;7007;-71
2022/03/01 05:47:44;;;;;;;;;;;;;;;5.30;47.68;101699.88;4969668;28;7352;-71
2022/03/01 05:50:12;;;;;;;;;;;;;;;5.29;47.84;101691.34;4969344;28;6894;-71
2022/03/01 05:52:38;;;;;;;;;;;;;;;5.29;48.47;101688.78;4961499;28;6812;-71
2022/03/01 05:55:06;;;;;;;;;;;;;;;5.31;47.75;101694.03;4977092;28;7458;-71
2022/03/01 05:57:32;;;;;;;;;;;;;;;5.30;48.64;101689.69;4977636;28;6816;-71
2022/03/01 05:59:59;;;;;;;;;;;;;;;5.29;47.94;101691.34;4978558;28;6816;-71
2022/03/01 06:02:25;;;;;;;;;;;;;;;5.28;48.31;101695.53;4976680;28;6947;-71
2022/03/01 06:04:52;;;;;;;;;;;;;;;5.26;47.90;101689.44;4979272;28;6788;-71
2022/03/01 06:07:18;;;;;;;;;;;;;;;5.26;47.99;101694.53;4953632;28;7007;-71
2022/03/01 06:09:44;;;;;;;;;;;;;;;5.27;48.21;101697.94;4955996;28;7338;-71
2022/03/01 06:12:10;;;;;;;;;;;;;;;5.26;47.85;101698.69;4977789;28;6788;-71
2022/03/01 06:14:35;;;;;;;;;;;;;;;5.24;47.93;101690.03;4973829;28;7226;-71
2022/03/01 06:17:01;;;;;;;;;;;;;;;5.22;48.59;101686.47;4953473;28;8199;-71
2022/03/01 06:19:27;;;;;;;;;;;;;;;5.21;48.88;101699.91;4980194;28;6788;-71
2022/03/01 06:21:53;;;;;;;;;;;;;;;5.19;49.25;101699.78;4952966;28;7289;-71
2022/03/01 06:24:19;;;;;;;;;;;;;;;5.20;48.99;101695.59;4973600;28;7100;-71
2022/03/01 06:26:45;;;;;;;;;;;;;;;5.19;48.96;101697.25;4969972;28;6835;-71
2022/03/01 06:29:11;;;;;;;;;;;;;;;5.19;48.47;101698.88;4972619;28;6824;-71
2022/03/01 06:31:37;;;;;;;;;;;;;;;5.20;48.52;101700.66;4953270;28;7374;-71
2022/03/01 06:34:03;;;;;;;;;;;;;;;5.20;48.45;101704.13;4954654;28;6875;-71
2022/03/01 06:36:29;;;;;;;;;;;;;;;5.23;48.91;101703.50;4974234;28;7189;-71
2022/03/01 06:38:54;;;;;;;;;;;;;;;5.27;49.00;101713.19;4955445;28;6827;-71
2022/03/01 06:41:20;;;;;;;;;;;;;;;5.30;48.94;101705.81;4959994;28;7003;-71
2022/03/01 06:43:46;;;;;;;;;;;;;;;5.33;49.14;101715.38;4959708;28;7076;-70
2022/03/01 06:46:13;;;;;;;;;;;;;;;5.36;49.10;101706.38;4974273;28;6812;-70
2022/03/01 06:48:39;;;;;;;;;;;;;;;5.39;48.47;101701.56;4972479;28;6800;-70
2022/03/01 06:51:07;;;;;;;;;;;;;;;5.42;48.87;101712.03;4973677;28;6804;-71
2022/03/01 06:53:35;;;;;;;;;;;;;;;5.44;48.79;101713.81;4973751;28;7234;-71
2022/03/01 06:56:01;;;;;;;;;;;;;;;5.45;49.00;101720.69;4963964;28;6815;-71
2022/03/01 06:58:27;;;;;;;;;;;;;;;5.47;48.30;101714.09;4957355;28;7774;-70
2022/03/01 07:00:53;;;;;;;;;;;;;;;5.49;48.98;101718.56;4958684;28;7087;-70
2022/03/01 07:03:18;;;;;;;;;;;;;;;5.52;48.95;101712.88;4938862;28;6915;-71
2022/03/01 07:05:44;;;;;;;;;;;;;;;5.54;48.59;101716.44;4970659;28;6796;-71
2022/03/01 07:08:13;;;;;;;;;;;;;;;5.55;48.29;101703.88;4941829;28;6895;-71
2022/03/01 07:10:40;;;;;;;;;;;;;;;5.58;48.99;101699.81;4973957;28;6820;-71
2022/03/01 07:13:07;;;;;;;;;;;;;;;5.58;48.52;101705.75;4975852;28;7205;-71
2022/03/01 07:15:35;;;;;;;;;;;;;;;5.59;48.40;101704.13;4958683;28;6908;-71
2022/03/01 07:18:01;;;;;;;;;;;;;;;5.60;48.77;101704.28;4977515;28;6819;-71
2022/03/01 07:20:27;;;;;;;;;;;;;;;5.62;48.81;101707.84;4976340;28;7220;-71
2022/03/01 07:22:53;;;;;;;;;;;;;;;5.63;48.25;101708.72;4978023;28;6796;-71
2022/03/01 07:25:18;;;;;;;;;;;;;;;5.67;48.52;101708.25;4975809;28;7256;-71
2022/03/01 07:27:52;;;;;;;;;;;;;;;5.71;49.17;101712.84;4976553;28;6812;-71
2022/03/01 07:30:21;;;;;;;;;;;;;;;5.78;49.07;101712.63;4946996;28;6836;-71
2022/03/01 07:32:48;;;;;;;;;;;;;;;5.91;49.03;101713.69;4971363;28;6824;-71
2022/03/01 07:35:14;;;;;;;;;;;;;;;6.03;48.69;101719.03;4972598;28;6906;-71
2022/03/01 07:37:40;;;;;;;;;;;;;;;6.15;48.94;101719.22;4972709;28;6804;-70
2022/03/01 07:40:10;;;;;;;;;;;;;;;6.29;48.39;101715.31;4953451;28;8068;-71
2022/03/01 07:42:37;;;;;;;;;;;;;;;6.41;48.67;101713.81;4972176;28;6870;-71
2022/03/01 07:45:04;;;;;;;;;;;;;;;6.52;48.30;101714.75;4972180;28;6893;-71
2022/03/01 07:47:30;;;;;;;;;;;;;;;6.62;48.28;101709.66;4959108;28;6876;-71
2022/03/01 07:49:56;;;;;;;;;;;;;;;6.69;48.18;101708.53;4963032;28;6900;-71
2022/03/01 07:52:22;;;;;;;;;;;;;;;6.77;48.16;101715.16;4972792;28;6945;-70
2022/03/01 07:54:48;;;;;;;;;;;;;;;6.86;47.98;101716.72;4977883;28;6788;-70
2022/03/01 07:57:15;;;;;;;;;;;;;;;6.94;47.89;101720.78;4984767;28;7201;-70
2022/03/01 07:59:41;;;;;;;;;;;;;;;7.03;47.14;101713.91;4976960;28;6845;-70
2022/03/01 08:02:08;;;;;;;;;;;;;;;7.13;47.63;101722.31;4995240;28;6957;-71
2022/03/01 08:04:33;;;;;;;;;;;;;;;7.23;46.96;101723.22;4996843;28;6789;-71
2022/03/01 08:07:00;;;;;;;;;;;;;;;7.34;47.56;101721.56;4974495;28;6803;-71
2022/03/01 08:09:26;;;;;;;;;;;;;;;7.47;47.17;101723.44;4990430;28;6804;-71
2022/03/01 08:11:52;;;;;;;;;;;;;;;7.60;47.46;101715.13;4978348;28;7237;-71
2022/03/01 08:14:17;;;;;;;;;;;;;;;7.77;47.40;101713.03;4989346;28;6784;-71
2022/03/01 08:16:43;;;;;;;;;;;;;;;7.94;46.41;101718.63;4994316;28;6800;-71
2022/03/01 08:19:09;;;;;;;;;;;;;;;8.09;47.27;101719.81;4991017;28;6887;-71
2022/03/01 08:21:34;;;;;;;;;;;;;;;8.23;46.29;101725.16;4973077;28;7237;-71
2022/03/01 08:24:00;;;;;;;;;;;;;;;8.37;46.02;101718.56;4999147;28;7256;-70
2022/03/01 08:26:26;;;;;;;;;;;;;;;8.46;45.74;101720.16;4988887;28;6799;-71
2022/03/01 08:28:53;;;;;;;;;;;;;;;8.59;45.45;101728.78;4980051;28;6977;-71
2022/03/01 08:31:19;;;;;;;;;;;;;;;8.68;45.76;101732.06;4968913;28;7011;-71
2022/03/01 08:33:45;;;;;;;;;;;;;;;8.79;44.97;101735.47;4964131;28;6784;-71
2022/03/01 08:36:15;;;;;;;;;;;;;;;8.91;45.40;101750.84;4971115;28;6788;-71
2022/03/01 08:38:41;;;;;;;;;;;;;;;9.04;45.40;101750.13;4989065;28;6800;-71
2022/03/01 08:41:07;;;;;;;;;;;;;;;9.15;45.81;101751.81;4976093;28;7023;-71
2022/03/01 08:43:33;;;;;;;;;;;;;;;9.27;44.48;101746.75;4991255;28;6872;-71
2022/03/01 08:45:59;;;;;;;;;;;;;;;9.35;44.98;101755.00;4988923;28;6957;-71
2022/03/01 08:48:25;;;;;;;;;;;;;;;9.43;44.73;101737.63;4994617;28;6803;-71
2022/03/01 08:50:52;;;;;;;;;;;;;;;9.48;43.86;101732.84;4964701;28;6824;-71
2022/03/01 08:53:21;;;;;;;;;;;;;;;9.51;44.59;101721.19;4980144;28;6979;-71
2022/03/01 08:55:47;;;;;;;;;;;;;;;9.53;43.89;101709.38;4976746;28;6919;-71
2022/03/01 08:58:13;;;;;;;;;;;;;;;9.50;44.28;101718.50;4991970;28;6796;-71
2022/03/01 09:00:40;;;;;;;;;;;;;;;9.47;43.61;101724.31;4971367;28;6847;-71
2022/03/01 09:03:06;;;;;;;;;;;;;;;9.40;44.12;101727.19;4973604;28;7429;-71
2022/03/01 09:05:32;;;;;;;;;;;;;;;9.34;43.74;101725.06;4997559;28;6780;-71
2022/03/01 09:07:58;;;;;;;;;;;;;;;9.29;44.11;101723.81;4996159;28;6879;-71
2022/03/01 09:10:24;;;;;;;;;;;;;;;9.23;43.57;101714.03;4974387;28;7210;-71
2022/03/01 09:12:55;;;;;;;;;;;;;;;9.20;43.84;101731.72;4982357;28;6788;-71
2022/03/01 09:15:23;;;;;;;;;;;;;;;9.25;43.98;101742.28;4995694;28;7153;-71
2022/03/01 09:17:50;;;;;;;;;;;;;;;9.37;43.69;101738.06;4996990;28;6832;-71
2022/03/01 09:20:16;;;;;;;;;;;;;;;9.57;44.34;101737.00;4978710;28;7387;-71
2022/03/01 09:22:42;;;;;;;;;;;;;;;9.85;44.60;101728.78;4995822;28;6815;-71
2022/03/01 09:25:09;;;;;;;;;;;;;;;10.18;44.40;101736.16;4988906;28;6955;-71
2022/03/01 09:27:35;;;;;;;;;;;;;;;10.48;43.36;101733.16;4978580;28;7217;-71
2022/03/01 09:30:03;;;;;;;;;;;;;;;10.74;43.16;101744.31;4991608;28;7822;-71
2022/03/01 09:32:28;;;;;;;;;;;;;;;10.91;42.79;101741.25;4975593;28;7314;-71
2022/03/01 09:34:55;;;;;;;;;;;;;;;11.07;42.56;101749.97;4979443;28;6798;-71
2022/03/01 09:37:22;;;;;;;;;;;;;;;11.17;42.13;101746.34;4970853;28;6816;-71
2022/03/01 09:39:48;;;;;;;;;;;;;;;11.27;41.89;101747.84;4963179;28;7202;-71
2022/03/01 09:42:14;;;;;;;;;;;;;;;11.32;41.89;101739.66;4985993;28;7220;-71
2022/03/01 09:44:42;;;;;;;;;;;;;;;11.37;41.07;101734.81;4977663;28;7189;-71
2022/03/01 09:47:08;;;;;;;;;;;;;;;11.39;41.10;101741.84;4995421;28;7354;-71
2022/03/01 09:49:34;;;;;;;;;;;;;;;11.42;41.03;101754.00;4998618;28;6788;-71
2022/03/01 09:52:00;;;;;;;;;;;;;;;11.45;41.67;101749.06;4978750;28;7033;-71
2022/03/01 09:54:26;;;;;;;;;;;;;;;11.52;40.93;101746.13;4978026;28;6816;-71
2022/03/01 09:56:51;;;;;;;;;;;;;;;11.59;40.91;101741.38;5000285;28;6859;-71
2022/03/01 09:59:17;;;;;;;;;;;;;;;11.66;41.11;101731.63;4996268;28;6780;-71
2022/03/01 10:01:51;;;;;;;;;;;;;;;11.77;40.88;101732.28;4998391;28;6791;-71
2022/03/01 10:04:18;;;;;;;;;;;;;;;11.87;40.22;101741.50;4995144;28;7312;-71
2022/03/01 10:06:49;;;;;;;;;;;;;;;11.98;40.40;101738.72;4983599;28;6872;-71
2022/03/01 10:09:26;;;;;;;;;;;;;;;12.08;40.41;101742.00;4965629;28;7433;-71
2022/03/01 10:11:52;;;;;;;;;;;;;;;12.21;40.68;101741.06;4997282;28;7428;-71
2022/03/01 10:14:31;;;;;;;;;;;;;;;12.34;40.13;101739.28;4997085;28;6799;-71
2022/03/01 10:16:57;;;;;;;;;;;;;;;12.47;40.22;101748.66;4981611;28;6987;-71
2022/03/01 10:19:24;;;;;;;;;;;;;;;12.59;39.97;101757.13;4987894;28;6965;-71
2022/03/01 10:22:00;;;;;;;;;;;;;;;12.73;39.77;101751.91;4984697;28;6981;-71
2022/03/01 10:24:27;;;;;;;;;;;;;;;12.86;39.61;101749.31;4974477;28;7278;-71
2022/03/01 10:27:01;;;;;;;;;;;;;;;13.01;39.79;101745.88;4977841;28;7174;-71
2022/03/01 10:29:30;;;;;;;;;;;;;;;13.15;39.27;101750.16;4970513;28;6800;-71
2022/03/01 10:32:00;;;;;;;;;;;;;;;13.28;39.59;101750.88;4971685;28;7043;-71
2022/03/01 10:34:27;;;;;;;;;;;;;;;13.39;38.69;101749.81;4954679;28;6820;-71
2022/03/01 10:36:53;;;;;;;;;;;;;;;13.50;38.81;101752.16;4955422;28;6871;-71
2022/03/01 10:39:28;;;;;;;;;;;;;;;13.60;38.50;101746.72;4991356;28;7187;-71
2022/03/01 10:41:55;;;;;;;;;;;;;;;13.70;38.70;101748.16;4979392;28;6907;-71
2022/03/01 10:44:22;;;;;;;;;;;;;;;13.78;38.38;101748.56;4975671;28;6994;-71
2022/03/01 10:46:55;;;;;;;;;;;;;;;13.87;39.20;101749.09;4973487;28;7276;-71
2022/03/01 10:49:28;;;;;;;;;;;;;;;13.95;39.07;101747.84;4995811;28;7213;-71
2022/03/01 10:52:02;;;;;;;;;;;;;;;14.07;39.21;101741.56;4970469;28;6824;-71
2022/03/01 10:54:34;;;;;;;;;;;;;;;14.21;38.62;101739.75;4991181;28;7559;-71
2022/03/01 10:57:04;;;;;;;;;;;;;;;14.34;38.86;101742.22;4991202;28;6820;-71
2022/03/01 10:59:33;;;;;;;;;;;;;;;14.55;38.13;101742.47;4980887;28;7294;-71
2022/03/01 11:02:01;;;;;;;;;;;;;;;14.74;37.57;101742.59;4969217;28;7015;-71
2022/03/01 11:04:27;;;;;;;;;;;;;;;14.88;37.10;101738.16;4975012;28;7162;-71
2022/03/01 11:06:59;;;;;;;;;;;;;;;15.00;37.29;101738.78;4975112;28;7889;-71
2022/03/01 11:09:28;;;;;;;;;;;;;;;15.19;36.93;101731.97;4986325;28;7224;-71
2022/03/01 11:11:57;;;;;;;;;;;;;;;15.43;37.34;101727.13;4993321;28;6824;-71
2022/03/01 11:14:57;;;;;;;;;;;;;;;15.63;37.01;101728.09;4980384;28;7035;-71
2022/03/01 11:17:52;;;;;;;;;;;;;;;15.83;36.13;101723.88;4993123;28;6899;-71
2022/03/01 11:20:24;;;;;;;;;;;;;;;15.98;35.97;101722.00;4991077;28;6816;-71
2022/03/01 11:23:05;;;;;;;;;;;;;;;16.09;35.84;101716.50;4969466;28;7291;-71
2022/03/01 11:25:38;;;;;;;;;;;;;;;16.24;35.76;101711.16;4958222;28;7843;-71
2022/03/01 11:28:09;;;;;;;;;;;;;;;16.59;35.19;101710.06;4998081;28;6899;-71
2022/03/01 11:30:42;;;;;;;;;;;;;;;17.15;34.63;101712.47;4975125;28;6897;-71
2022/03/01 11:33:09;;;;;;;;;;;;;;;17.69;34.05;101698.25;4971541;28;7864;-71
2022/03/01 11:35:50;;;;;;;;;;;;;;;18.14;33.62;101700.84;4959546;28;6888;-71
2022/03/01 11:38:17;;;;;;;;;;;;;;;18.81;33.39;101702.34;4993958;28;10118;-71
2022/03/01 11:40:47;;;;;;;;;;;;;;;19.28;32.50;101708.31;4995111;28;7694;-71
2022/03/01 11:43:23;;;;;;;;;;;;;;;19.59;31.70;101698.00;4990676;28;6905;-71
2022/03/01 11:45:58;;;;;;;;;;;;;;;19.95;31.89;101700.03;4975242;28;7285;-71
2022/03/01 11:48:27;;;;;;;;;;;;;;;20.33;31.00;101694.16;4995537;28;7192;-71
2022/03/01 11:51:03;;;;;;;;;;;;;;;20.66;30.97;101695.91;4994718;28;7038;-71
2022/03/01 11:53:41;;;;;;;;;;;;;;;21.01;30.57;101689.91;4994739;28;6884;-71
2022/03/01 11:56:09;;;;;;;;;;;;;;;21.19;30.25;101692.09;4981450;28;6824;-71
2022/03/01 11:58:37;;;;;;;;;;;;;;;21.23;30.01;101686.09;4981923;28;6811;-71
2022/03/01 12:01:10;;;;;;;;;;;;;;;21.38;29.94;101692.53;4995520;28;8384;-71
2022/03/01 12:03:39;;;;;;;;;;;;;;;21.92;29.51;101695.50;4966599;28;7015;-71
2022/03/01 12:06:06;;;;;;;;;;;;;;;22.69;28.96;101705.75;4993885;28;7104;-71
2022/03/01 12:08:32;;;;;;;;;;;;;;;23.16;28.20;101695.22;4975208;28;7179;-71
2022/03/01 12:11:08;;;;;;;;;;;;;;;23.38;27.39;101706.09;4968020;28;6900;-71
2022/03/01 12:13:44;;;;;;;;;;;;;;;23.51;27.17;101695.81;4977565;28;7189;-71
2022/03/01 12:16:24;;;;;;;;;;;;;;;23.46;27.20;101687.88;4987043;28;7073;-71
2022/03/01 12:18:50;;;;;;;;;;;;;;;23.07;26.58;101696.84;4995221;28;6827;-71
2022/03/01 12:21:16;;;;;;;;;;;;;;;22.70;27.27;101705.78;4972084;28;7121;-71
2022/03/01 12:23:45;;;;;;;;;;;;;;;22.46;27.46;101693.09;4988581;28;6953;-71
2022/03/01 12:26:15;;;;;;;;;;;;;;;22.33;27.25;101692.88;4974785;28;7294;-71
2022/03/01 12:28:46;;;;;;;;;;;;;;;22.21;27.57;101697.81;4960742;28;6824;-71
2022/03/01 12:31:23;;;;;;;;;;;;;;;22.06;27.85;101683.63;4973770;28;7423;-71
2022/03/01 12:34:00;;;;;;;;;;;;;;;21.91;27.89;101681.56;4995038;28;6819;-71
2022/03/01 12:36:33;;;;;;;;;;;;;;;21.54;27.68;101661.59;4973829;28;6884;-71
2022/03/01 12:39:16;;;;;;;;;;;;;;;20.93;27.77;101666.25;4958607;28;6872;-71
2022/03/01 12:41:44;;;;;;;;;;;;;;;20.32;28.42;101655.94;4971477;28;6811;-71
2022/03/01 12:44:12;;;;;;;;;;;;;;;19.83;28.71;101653.66;4984771;28;7897;-71
2022/03/01 12:46:41;;;;;;;;;;;;;;;19.40;29.28;101655.84;4998428;28;7011;-71
2022/03/01 12:49:11;;;;;;;;;;;;;;;19.10;29.79;101648.81;4975748;28;6820;-71
2022/03/01 12:51:38;;;;;;;;;;;;;;;18.90;29.54;101639.47;4990890;28;6959;-71
2022/03/01 12:54:17;;;;;;;;;;;;;;;18.71;29.91;101646.63;4991938;28;7641;-71
2022/03/01 12:56:50;;;;;;;;;;;;;;;18.57;30.46;101638.34;4974692;28;6824;-71